createdAt,value
2023-05-01T00:01:42.188Z,51.40
2023-05-01T00:04:18.850Z,52.40
2023-05-01T00:06:54.346Z,51.60
2023-05-01T00:09:33.878Z,51.40
2023-05-01T00:12:09.336Z,51.60
2023-05-01T00:14:46.617Z,50.20
2023-05-01T00:17:21.797Z,49.90
2023-05-01T00:19:59.099Z,50.60
2023-05-01T00:22:34.418Z,50.40
2023-05-01T00:25:12.418Z,50.40
2023-05-01T00:27:47.518Z,50.20
2023-05-01T00:30:25.959Z,50.10
2023-05-01T00:33:01.282Z,49.90
2023-05-01T00:35:37.515Z,50.30
2023-05-01T00:38:12.750Z,49.60
2023-05-01T00:40:50.837Z,49.70
2023-05-01T00:43:26.069Z,48.60
2023-05-01T00:46:03.747Z,49.90
2023-05-01T00:48:39.244Z,49.50
2023-05-01T00:51:17.340Z,48.30
2023-05-01T00:53:52.824Z,48.50
2023-05-01T00:56:29.653Z,49.60
2023-05-01T00:59:05.756Z,49.60
2023-05-01T01:01:43.988Z,49.10
2023-05-01T01:04:19.631Z,48.60
2023-05-01T01:07:00.649Z,49.70
2023-05-01T01:09:47.061Z,48.60
2023-05-01T01:12:32.229Z,49.10
2023-05-01T01:15:18.265Z,48.90
2023-05-01T01:18:14.225Z,48.40
2023-05-01T01:20:54.575Z,48.30
2023-05-01T01:24:03.687Z,49.80
2023-05-01T01:27:12.696Z,49.40
2023-05-01T01:30:16.392Z,48.20
2023-05-01T01:33:13.567Z,48.30
2023-05-01T01:35:58.133Z,48.60
2023-05-01T01:38:40.594Z,49.00
2023-05-01T01:41:20.862Z,47.60
2023-05-01T01:44:07.079Z,48.30
2023-05-01T01:46:44.575Z,48.00
2023-05-01T01:49:24.479Z,47.50
2023-05-01T01:52:07.293Z,47.70
2023-05-01T01:54:47.955Z,48.00
2023-05-01T01:57:26.376Z,48.50
2023-05-01T02:00:02.166Z,49.00
2023-05-01T02:02:49.313Z,49.20
2023-05-01T02:05:26.708Z,49.10
2023-05-01T02:08:06.903Z,47.60
2023-05-01T02:10:43.014Z,47.70
2023-05-01T02:13:19.817Z,47.80
2023-05-01T02:15:57.185Z,45.20
2023-05-01T02:18:34.218Z,46.20
2023-05-01T02:21:10.375Z,47.20
2023-05-01T02:23:48.157Z,47.70
2023-05-01T02:26:26.148Z,47.70
2023-05-01T02:29:02.688Z,47.10
2023-05-01T02:31:38.274Z,45.00
2023-05-01T02:34:14.116Z,46.70
2023-05-01T02:36:51.371Z,47.30
2023-05-01T02:39:31.102Z,47.70
2023-05-01T02:42:07.914Z,48.00
2023-05-01T02:44:48.152Z,46.70
2023-05-01T02:47:27.430Z,45.10
2023-05-01T02:50:06.196Z,45.40
2023-05-01T02:52:42.732Z,45.80
2023-05-01T02:55:40.514Z,45.90
2023-05-01T02:58:22.245Z,45.50
2023-05-01T03:01:00.412Z,46.40
2023-05-01T03:03:35.865Z,45.90
2023-05-01T03:06:11.712Z,45.80
2023-05-01T03:08:49.130Z,44.00
2023-05-01T03:11:26.411Z,44.50
2023-05-01T03:14:02.165Z,43.70
2023-05-01T03:16:37.991Z,43.30
2023-05-01T03:19:14.538Z,43.30
2023-05-01T03:21:49.879Z,43.40
2023-05-01T03:24:24.975Z,43.50
2023-05-01T03:27:02.708Z,42.50
2023-05-01T03:29:39.694Z,41.20
2023-05-01T03:32:15.259Z,41.40
2023-05-01T03:34:52.308Z,42.40
2023-05-01T03:37:28.913Z,42.70
2023-05-01T03:40:05.092Z,42.00
2023-05-01T03:42:43.427Z,42.30
2023-05-01T03:45:27.407Z,41.90
2023-05-01T03:48:02.802Z,40.70
2023-05-01T03:50:39.790Z,40.10
2023-05-01T03:53:15.231Z,41.00
2023-05-01T03:55:50.856Z,41.20
2023-05-01T03:58:29.378Z,40.30
2023-05-01T04:01:06.257Z,40.30
2023-05-01T04:03:46.284Z,41.20
2023-05-01T04:06:24.174Z,42.30
2023-05-01T04:09:00.331Z,41.80
2023-05-01T04:11:37.810Z,41.10
2023-05-01T04:14:15.449Z,40.80
2023-05-01T04:16:52.594Z,42.10
2023-05-01T04:19:28.637Z,40.70
2023-05-01T04:22:09.951Z,41.50
2023-05-01T04:24:46.404Z,41.30
2023-05-01T04:27:21.890Z,41.50
2023-05-01T04:30:00.146Z,41.30
2023-05-01T04:32:39.891Z,40.20
2023-05-01T04:35:15.689Z,41.60
2023-05-01T04:37:52.390Z,41.40
2023-05-01T04:40:27.970Z,42.00
2023-05-01T04:43:05.396Z,41.70
2023-05-01T04:45:44.814Z,42.40
2023-05-01T04:48:20.643Z,41.90
2023-05-01T04:50:56.961Z,41.80
2023-05-01T04:53:35.969Z,41.40
2023-05-01T04:56:13.929Z,41.20
2023-05-01T04:58:50.421Z,41.30
2023-05-01T05:01:34.273Z,42.30
2023-05-01T05:04:11.498Z,41.80
2023-05-01T05:06:47.595Z,41.70
2023-05-01T05:09:31.115Z,42.50
2023-05-01T05:12:07.777Z,42.70
2023-05-01T05:14:49.691Z,42.10
2023-05-01T05:17:28.090Z,42.70
2023-05-01T05:20:04.006Z,43.10
2023-05-01T05:22:42.504Z,43.40
2023-05-01T05:25:44.949Z,42.40
2023-05-01T05:28:21.355Z,43.60
2023-05-01T05:30:58.696Z,42.40
2023-05-01T05:33:36.419Z,44.90
2023-05-01T05:36:14.075Z,43.30
2023-05-01T05:38:53.779Z,43.90
2023-05-01T05:41:29.008Z,42.80
2023-05-01T05:44:08.354Z,44.00
2023-05-01T05:46:48.420Z,44.30
2023-05-01T05:49:36.418Z,44.40
2023-05-01T05:52:11.614Z,45.60
2023-05-01T05:54:49.159Z,44.50
2023-05-01T05:57:28.024Z,43.90
2023-05-01T06:00:07.166Z,45.20
2023-05-01T06:02:51.292Z,45.60
2023-05-01T06:05:30.598Z,46.20
2023-05-01T06:08:07.801Z,46.70
2023-05-01T06:10:43.513Z,46.20
2023-05-01T06:13:19.208Z,45.70
2023-05-01T06:15:57.159Z,46.20
2023-05-01T06:18:33.971Z,46.70
2023-05-01T06:21:15.060Z,46.50
2023-05-01T06:23:51.538Z,46.70
2023-05-01T06:26:47.471Z,47.50
2023-05-01T06:29:24.627Z,46.10
2023-05-01T06:32:00.720Z,47.60
2023-05-01T06:34:36.164Z,46.10
2023-05-01T06:37:14.228Z,47.00
2023-05-01T06:39:52.253Z,47.50
2023-05-01T06:42:28.417Z,47.80
2023-05-01T06:45:10.895Z,47.80
2023-05-01T06:47:46.453Z,47.00
2023-05-01T06:50:22.676Z,47.50
2023-05-01T06:53:01.552Z,48.20
2023-05-01T06:55:39.244Z,48.50
2023-05-01T06:58:23.642Z,48.70
2023-05-01T07:01:01.015Z,48.60
2023-05-01T07:03:36.726Z,49.50
2023-05-01T07:06:12.065Z,50.00
2023-05-01T07:08:50.794Z,50.80
2023-05-01T07:11:28.548Z,51.20
2023-05-01T07:14:04.067Z,51.50
2023-05-01T07:16:39.428Z,51.20
2023-05-01T07:19:15.247Z,51.40
2023-05-01T07:21:51.044Z,52.20
2023-05-01T07:24:29.409Z,52.30
2023-05-01T07:27:04.693Z,52.10
2023-05-01T07:29:42.484Z,52.50
2023-05-01T07:32:25.811Z,52.50
2023-05-01T07:35:01.539Z,52.70
2023-05-01T07:37:36.729Z,53.20
2023-05-01T07:40:15.896Z,53.40
2023-05-01T07:42:54.369Z,53.00
2023-05-01T07:45:29.987Z,53.10
2023-05-01T07:48:05.101Z,53.10
2023-05-01T07:50:40.536Z,53.60
2023-05-01T07:53:16.646Z,53.40
2023-05-01T07:55:54.598Z,54.00
2023-05-01T07:58:29.751Z,54.40
2023-05-01T08:01:05.341Z,54.70
2023-05-01T08:03:41.711Z,55.30
2023-05-01T08:06:17.203Z,55.80
2023-05-01T08:08:53.041Z,56.00
2023-05-01T08:11:31.468Z,56.90
2023-05-01T08:14:07.685Z,56.80
2023-05-01T08:16:43.038Z,56.50
2023-05-01T08:19:18.217Z,57.30
2023-05-01T08:21:53.556Z,56.40
2023-05-01T08:24:29.781Z,56.40
2023-05-01T08:27:07.576Z,55.70
2023-05-01T08:29:42.678Z,53.70
2023-05-01T08:32:19.965Z,55.10
2023-05-01T08:34:57.805Z,54.20
2023-05-01T08:37:33.366Z,54.80
2023-05-01T08:40:10.485Z,54.20
2023-05-01T08:42:49.698Z,55.00
2023-05-01T08:45:27.234Z,53.40
2023-05-01T08:48:05.159Z,53.80
2023-05-01T08:50:41.519Z,53.90
2023-05-01T08:53:18.260Z,53.90
2023-05-01T08:55:57.817Z,54.00
2023-05-01T08:58:38.267Z,53.10
2023-05-01T09:01:17.739Z,52.20
2023-05-01T09:03:57.055Z,52.00
2023-05-01T09:06:34.155Z,52.00
2023-05-01T09:09:10.251Z,51.70
2023-05-01T09:11:47.747Z,51.60
2023-05-01T09:14:26.913Z,51.10
2023-05-01T09:17:03.117Z,51.60
2023-05-01T09:19:38.828Z,51.00
2023-05-01T09:22:15.464Z,51.50
2023-05-01T09:24:51.028Z,51.00
2023-05-01T09:27:27.264Z,50.90
2023-05-01T09:30:05.569Z,52.20
2023-05-01T09:32:42.647Z,52.00
2023-05-01T09:35:19.738Z,51.70
2023-05-01T09:37:56.324Z,51.50
2023-05-01T09:40:33.966Z,51.60
2023-05-01T09:43:11.785Z,51.10
2023-05-01T09:46:06.954Z,50.90
2023-05-01T09:48:43.880Z,51.60
2023-05-01T09:51:30.711Z,51.20
2023-05-01T09:54:07.028Z,52.10
2023-05-01T09:56:52.422Z,51.40
2023-05-01T09:59:32.730Z,51.20
2023-05-01T10:02:10.768Z,51.80
2023-05-01T10:04:46.229Z,51.50
2023-05-01T10:07:21.497Z,52.20
2023-05-01T10:10:00.069Z,52.00
2023-05-01T10:12:38.750Z,52.50
2023-05-01T10:15:24.455Z,52.80
2023-05-01T10:18:04.606Z,51.60
2023-05-01T10:20:40.951Z,53.00
2023-05-01T10:23:18.549Z,52.50
2023-05-01T10:25:56.843Z,52.80
2023-05-01T10:28:33.543Z,53.00
2023-05-01T10:31:11.061Z,53.30
2023-05-01T10:33:49.077Z,52.60
2023-05-01T10:36:26.419Z,52.90
2023-05-01T10:39:02.474Z,52.30
2023-05-01T10:42:12.472Z,52.40
2023-05-01T10:44:49.616Z,52.50
2023-05-01T10:47:54.869Z,53.00
2023-05-01T10:50:32.345Z,52.90
2023-05-01T10:53:23.958Z,52.80
2023-05-01T10:56:00.516Z,52.70
2023-05-01T10:59:00.130Z,52.70
2023-05-01T11:01:38.348Z,53.40
2023-05-01T11:04:36.875Z,52.90
2023-05-01T11:07:23.945Z,53.10
2023-05-01T11:10:01.274Z,53.30
2023-05-01T11:12:57.420Z,53.30
2023-05-01T11:15:36.018Z,53.50
2023-05-01T11:18:13.801Z,53.20
2023-05-01T11:20:55.871Z,53.60
2023-05-01T11:23:33.114Z,53.00
2023-05-01T11:26:09.849Z,53.30
2023-05-01T11:28:46.065Z,53.30
2023-05-01T11:31:23.533Z,53.60
2023-05-01T11:34:01.127Z,53.40
2023-05-01T11:36:53.395Z,54.10
2023-05-01T11:39:30.850Z,53.40
2023-05-01T11:42:15.180Z,53.90
2023-05-01T11:45:12.561Z,53.70
2023-05-01T11:47:49.325Z,53.90
2023-05-01T11:50:25.255Z,54.40
2023-05-01T11:53:00.418Z,55.00
2023-05-01T11:55:40.324Z,54.50
2023-05-01T11:58:16.868Z,54.60
2023-05-01T12:01:19.670Z,54.50
2023-05-01T12:03:55.597Z,55.20
2023-05-01T12:06:45.602Z,55.90
2023-05-01T12:09:23.550Z,55.70
2023-05-01T12:12:10.788Z,56.20
2023-05-01T12:14:49.524Z,56.90
2023-05-01T12:17:25.104Z,56.70
2023-05-01T12:20:02.223Z,56.30
2023-05-01T12:22:38.596Z,56.20
2023-05-01T12:25:16.622Z,57.20
2023-05-01T12:28:24.540Z,57.20
2023-05-01T12:31:06.609Z,57.60
2023-05-01T12:33:42.151Z,57.40
2023-05-01T12:36:17.528Z,57.20
2023-05-01T12:39:02.390Z,57.70
2023-05-01T12:41:57.988Z,57.50
2023-05-01T12:44:38.419Z,57.50
2023-05-01T12:47:14.464Z,57.70
2023-05-01T12:50:09.181Z,58.40
2023-05-01T12:52:44.855Z,58.60
2023-05-01T12:55:20.519Z,59.30
2023-05-01T12:57:58.723Z,59.20
2023-05-01T13:00:48.585Z,59.60
2023-05-01T13:03:29.611Z,59.30
2023-05-01T13:06:07.694Z,59.30
2023-05-01T13:08:45.074Z,58.90
2023-05-01T13:11:35.043Z,59.50
2023-05-01T13:14:16.983Z,59.20
2023-05-01T13:17:15.649Z,59.40
2023-05-01T13:19:59.620Z,58.50
2023-05-01T13:22:39.704Z,59.10
2023-05-01T13:25:30.175Z,58.40
2023-05-01T13:28:06.274Z,57.90
2023-05-01T13:30:42.369Z,57.90
2023-05-01T13:33:19.835Z,58.30
2023-05-01T13:35:56.730Z,58.10
2023-05-01T13:38:32.849Z,58.50
2023-05-01T13:41:08.739Z,58.80
2023-05-01T13:43:45.828Z,58.90
2023-05-01T13:46:23.188Z,59.00
2023-05-01T13:49:02.723Z,58.90
2023-05-01T13:51:40.312Z,58.50
2023-05-01T13:54:16.231Z,58.30
2023-05-01T13:56:51.894Z,58.50
2023-05-01T13:59:41.140Z,58.10
2023-05-01T14:02:24.894Z,58.70
2023-05-01T14:05:05.217Z,58.80
2023-05-01T14:07:49.958Z,58.70
2023-05-01T20:53:09.585Z,56.60
2023-05-01T20:55:45.639Z,54.80
2023-05-01T20:58:20.977Z,53.70
2023-05-01T21:00:59.835Z,54.20
2023-05-01T21:03:36.368Z,56.00
2023-05-01T21:06:16.135Z,56.90
2023-05-01T21:08:51.931Z,58.00
2023-05-01T21:11:27.605Z,58.20
2023-05-01T21:14:04.981Z,57.50
2023-05-01T21:16:42.532Z,57.10
2023-05-01T21:19:19.203Z,57.10
2023-05-01T21:21:56.863Z,56.60
2023-05-01T21:24:33.321Z,56.30
2023-05-01T21:27:12.247Z,55.60
